sensor_id;sensor_type;location;lat;lon;timestamp;temperature;humidity
12315;DHT22;23886;46.614;14.276;2022-10-04T00:01:45;5.80;99.90
12315;DHT22;23886;46.614;14.276;2022-10-04T00:04:16;5.80;99.90
12315;DHT22;23886;46.614;14.276;2022-10-04T00:06:46;5.70;99.90
12315;DHT22;23886;46.614;14.276;2022-10-04T00:09:16;5.70;99.90
12315;DHT22;23886;46.614;14.276;2022-10-04T00:11:47;5.70;99.90
12315;DHT22;23886;46.614;14.276;2022-10-04T00:14:17;5.70;99.90
12315;DHT22;23886;46.614;14.276;2022-10-04T00:16:45;5.50;99.90
12315;DHT22;23886;46.614;14.276;2022-10-04T00:19:43;5.50;99.90
12315;DHT22;23886;46.614;14.276;2022-10-04T00:22:23;5.80;99.90
12315;DHT22;23886;46.614;14.276;2022-10-04T00:31:16;5.60;99.90
12315;DHT22;23886;46.614;14.276;2022-10-04T00:33:45;5.70;99.90
12315;DHT22;23886;46.614;14.276;2022-10-04T00:36:39;5.80;99.90
12315;DHT22;23886;46.614;14.276;2022-10-04T00:39:24;5.70;99.90
12315;DHT22;23886;46.614;14.276;2022-10-04T00:41:58;5.70;99.90
12315;DHT22;23886;46.614;14.276;2022-10-04T00:44:32;5.70;99.90
12315;DHT22;23886;46.614;14.276;2022-10-04T00:47:13;5.60;99.90
12315;DHT22;23886;46.614;14.276;2022-10-04T00:49:44;5.60;99.90
12315;DHT22;23886;46.614;14.276;2022-10-04T00:52:18;5.60;99.90
12315;DHT22;23886;46.614;14.276;2022-10-04T00:54:48;5.60;99.90
12315;DHT22;23886;46.614;14.276;2022-10-04T00:57:20;5.60;99.90
12315;DHT22;23886;46.614;14.276;2022-10-04T00:59:49;5.60;99.90
12315;DHT22;23886;46.614;14.276;2022-10-04T01:02:21;5.50;99.90
12315;DHT22;23886;46.614;14.276;2022-10-04T01:04:52;5.40;99.90
12315;DHT22;23886;46.614;14.276;2022-10-04T01:07:25;5.40;99.90
12315;DHT22;23886;46.614;14.276;2022-10-04T01:09:56;5.30;99.90
12315;DHT22;23886;46.614;14.276;2022-10-04T01:12:35;5.20;99.90
12315;DHT22;23886;46.614;14.276;2022-10-04T01:15:07;5.20;99.90
12315;DHT22;23886;46.614;14.276;2022-10-04T01:17:39;5.10;99.90
12315;DHT22;23886;46.614;14.276;2022-10-04T01:20:29;5.10;99.90
12315;DHT22;23886;46.614;14.276;2022-10-04T01:22:57;5.20;99.90
12315;DHT22;23886;46.614;14.276;2022-10-04T01:25:43;5.10;99.90
12315;DHT22;23886;46.614;14.276;2022-10-04T01:28:11;5.00;99.90
12315;DHT22;23886;46.614;14.276;2022-10-04T01:30:38;4.90;99.90
12315;DHT22;23886;46.614;14.276;2022-10-04T01:33:05;5.00;99.90
12315;DHT22;23886;46.614;14.276;2022-10-04T01:35:33;5.20;99.90
12315;DHT22;23886;46.614;14.276;2022-10-04T01:38:03;5.20;99.90
12315;DHT22;23886;46.614;14.276;2022-10-04T01:40:32;5.20;99.90
12315;DHT22;23886;46.614;14.276;2022-10-04T01:43:03;5.20;99.90
12315;DHT22;23886;46.614;14.276;2022-10-04T01:45:36;5.10;99.90
12315;DHT22;23886;46.614;14.276;2022-10-04T01:48:07;5.00;99.90
12315;DHT22;23886;46.614;14.276;2022-10-04T01:50:39;5.00;99.90
12315;DHT22;23886;46.614;14.276;2022-10-04T01:53:17;4.90;99.90
12315;DHT22;23886;46.614;14.276;2022-10-04T01:55:49;4.80;99.90
12315;DHT22;23886;46.614;14.276;2022-10-04T01:58:19;4.90;99.90
12315;DHT22;23886;46.614;14.276;2022-10-04T02:00:52;5.00;99.90
12315;DHT22;23886;46.614;14.276;2022-10-04T02:03:23;5.00;99.90
12315;DHT22;23886;46.614;14.276;2022-10-04T02:05:56;5.10;99.90
12315;DHT22;23886;46.614;14.276;2022-10-04T02:08:28;5.10;99.90
12315;DHT22;23886;46.614;14.276;2022-10-04T02:10:55;5.20;99.90
12315;DHT22;23886;46.614;14.276;2022-10-04T02:13:24;5.20;99.90
12315;DHT22;23886;46.614;14.276;2022-10-04T02:15:54;5.00;99.90
12315;DHT22;23886;46.614;14.276;2022-10-04T02:18:23;4.80;99.90
12315;DHT22;23886;46.614;14.276;2022-10-04T02:20:52;4.70;99.90
12315;DHT22;23886;46.614;14.276;2022-10-04T02:23:20;4.80;99.90
12315;DHT22;23886;46.614;14.276;2022-10-04T02:25:49;5.00;99.90
12315;DHT22;23886;46.614;14.276;2022-10-04T02:28:17;5.20;99.90
12315;DHT22;23886;46.614;14.276;2022-10-04T02:30:47;5.20;99.90
12315;DHT22;23886;46.614;14.276;2022-10-04T02:33:29;5.10;99.90
12315;DHT22;23886;46.614;14.276;2022-10-04T02:35:56;5.20;99.90
12315;DHT22;23886;46.614;14.276;2022-10-04T02:38:27;5.20;99.90
12315;DHT22;23886;46.614;14.276;2022-10-04T02:41:01;5.20;99.90
12315;DHT22;23886;46.614;14.276;2022-10-04T02:43:33;5.20;99.90
12315;DHT22;23886;46.614;14.276;2022-10-04T02:46:04;5.20;99.90
12315;DHT22;23886;46.614;14.276;2022-10-04T02:48:36;5.10;99.90
12315;DHT22;23886;46.614;14.276;2022-10-04T02:51:14;5.00;99.90
12315;DHT22;23886;46.614;14.276;2022-10-04T02:53:49;5.10;99.90
12315;DHT22;23886;46.614;14.276;2022-10-04T02:56:18;5.10;99.90
12315;DHT22;23886;46.614;14.276;2022-10-04T02:58:47;5.00;99.90
12315;DHT22;23886;46.614;14.276;2022-10-04T03:01:22;5.00;99.90
12315;DHT22;23886;46.614;14.276;2022-10-04T03:03:51;5.00;99.90
12315;DHT22;23886;46.614;14.276;2022-10-04T03:06:20;4.90;99.90
12315;DHT22;23886;46.614;14.276;2022-10-04T03:08:51;4.90;99.90
12315;DHT22;23886;46.614;14.276;2022-10-04T03:11:23;4.90;99.90
12315;DHT22;23886;46.614;14.276;2022-10-04T03:13:54;5.00;99.90
12315;DHT22;23886;46.614;14.276;2022-10-04T03:16:22;5.00;99.90
12315;DHT22;23886;46.614;14.276;2022-10-04T03:18:50;5.00;99.90
12315;DHT22;23886;46.614;14.276;2022-10-04T03:21:20;5.10;99.90
12315;DHT22;23886;46.614;14.276;2022-10-04T03:23:49;5.10;99.90
12315;DHT22;23886;46.614;14.276;2022-10-04T03:26:25;5.10;99.90
12315;DHT22;23886;46.614;14.276;2022-10-04T03:28:54;5.40;99.90
12315;DHT22;23886;46.614;14.276;2022-10-04T03:31:22;5.30;99.90
12315;DHT22;23886;46.614;14.276;2022-10-04T03:33:51;5.20;99.90
12315;DHT22;23886;46.614;14.276;2022-10-04T03:36:20;5.00;99.90
12315;DHT22;23886;46.614;14.276;2022-10-04T03:38:52;5.00;99.90
12315;DHT22;23886;46.614;14.276;2022-10-04T03:41:22;4.90;99.90
12315;DHT22;23886;46.614;14.276;2022-10-04T03:43:50;5.00;99.90
12315;DHT22;23886;46.614;14.276;2022-10-04T03:46:19;4.90;99.90
12315;DHT22;23886;46.614;14.276;2022-10-04T03:48:50;5.00;99.90
12315;DHT22;23886;46.614;14.276;2022-10-04T03:51:19;4.90;99.90
12315;DHT22;23886;46.614;14.276;2022-10-04T03:53:49;4.70;99.90
12315;DHT22;23886;46.614;14.276;2022-10-04T03:56:21;4.70;99.90
12315;DHT22;23886;46.614;14.276;2022-10-04T03:58:50;4.70;99.90
12315;DHT22;23886;46.614;14.276;2022-10-04T04:01:29;4.80;99.90
12315;DHT22;23886;46.614;14.276;2022-10-04T04:04:02;4.90;99.90
12315;DHT22;23886;46.614;14.276;2022-10-04T04:06:39;5.00;99.90
12315;DHT22;23886;46.614;14.276;2022-10-04T04:09:08;5.00;99.90
12315;DHT22;23886;46.614;14.276;2022-10-04T04:11:46;5.10;99.90
12315;DHT22;23886;46.614;14.276;2022-10-04T04:14:20;5.10;99.90
12315;DHT22;23886;46.614;14.276;2022-10-04T04:16:48;5.10;99.90
12315;DHT22;23886;46.614;14.276;2022-10-04T04:19:16;5.40;99.90
12315;DHT22;23886;46.614;14.276;2022-10-04T04:21:45;5.50;99.90
12315;DHT22;23886;46.614;14.276;2022-10-04T04:24:18;5.50;99.90
12315;DHT22;23886;46.614;14.276;2022-10-04T04:26:55;5.70;99.90
12315;DHT22;23886;46.614;14.276;2022-10-04T04:29:27;5.60;99.90
12315;DHT22;23886;46.614;14.276;2022-10-04T04:32:00;5.70;99.90
12315;DHT22;23886;46.614;14.276;2022-10-04T04:34:31;5.70;99.90
12315;DHT22;23886;46.614;14.276;2022-10-04T04:36:59;5.60;99.90
12315;DHT22;23886;46.614;14.276;2022-10-04T04:39:27;5.70;99.90
12315;DHT22;23886;46.614;14.276;2022-10-04T04:42:05;5.80;99.90
12315;DHT22;23886;46.614;14.276;2022-10-04T04:44:38;5.70;99.90
12315;DHT22;23886;46.614;14.276;2022-10-04T04:47:06;5.50;99.90
12315;DHT22;23886;46.614;14.276;2022-10-04T04:49:37;5.40;99.90
12315;DHT22;23886;46.614;14.276;2022-10-04T04:52:13;5.30;99.90
12315;DHT22;23886;46.614;14.276;2022-10-04T04:54:43;5.20;99.90
12315;DHT22;23886;46.614;14.276;2022-10-04T04:57:15;5.20;99.90
12315;DHT22;23886;46.614;14.276;2022-10-04T04:59:45;5.40;99.90
12315;DHT22;23886;46.614;14.276;2022-10-04T05:02:31;5.50;99.90
12315;DHT22;23886;46.614;14.276;2022-10-04T05:05:27;5.30;99.90
12315;DHT22;23886;46.614;14.276;2022-10-04T05:08:12;5.50;99.90
12315;DHT22;23886;46.614;14.276;2022-10-04T05:10:43;5.80;99.90
12315;DHT22;23886;46.614;14.276;2022-10-04T05:13:13;5.80;99.90
12315;DHT22;23886;46.614;14.276;2022-10-04T05:15:41;5.80;99.90
12315;DHT22;23886;46.614;14.276;2022-10-04T05:18:18;6.00;99.90
12315;DHT22;23886;46.614;14.276;2022-10-04T05:20:50;6.10;99.90
12315;DHT22;23886;46.614;14.276;2022-10-04T05:23:18;6.30;99.90
12315;DHT22;23886;46.614;14.276;2022-10-04T05:25:45;6.40;99.90
12315;DHT22;23886;46.614;14.276;2022-10-04T05:28:13;6.50;99.90
12315;DHT22;23886;46.614;14.276;2022-10-04T05:30:48;6.60;99.90
12315;DHT22;23886;46.614;14.276;2022-10-04T05:33:22;6.60;99.90
12315;DHT22;23886;46.614;14.276;2022-10-04T05:36:01;6.60;99.90
12315;DHT22;23886;46.614;14.276;2022-10-04T05:38:39;6.50;99.90
12315;DHT22;23886;46.614;14.276;2022-10-04T05:41:14;6.50;99.90
12315;DHT22;23886;46.614;14.276;2022-10-04T05:43:48;6.60;99.90
12315;DHT22;23886;46.614;14.276;2022-10-04T05:46:22;6.70;99.90
12315;DHT22;23886;46.614;14.276;2022-10-04T05:48:54;6.80;99.90
12315;DHT22;23886;46.614;14.276;2022-10-04T05:51:24;6.70;99.90
12315;DHT22;23886;46.614;14.276;2022-10-04T05:53:53;6.70;99.90
12315;DHT22;23886;46.614;14.276;2022-10-04T05:56:34;6.50;99.90
12315;DHT22;23886;46.614;14.276;2022-10-04T05:59:15;6.70;99.90
12315;DHT22;23886;46.614;14.276;2022-10-04T06:01:56;6.90;99.90
12315;DHT22;23886;46.614;14.276;2022-10-04T06:04:42;6.90;99.90
12315;DHT22;23886;46.614;14.276;2022-10-04T06:07:18;7.10;99.90
12315;DHT22;23886;46.614;14.276;2022-10-04T06:09:59;7.20;99.90
12315;DHT22;23886;46.614;14.276;2022-10-04T06:12:42;7.30;99.90
12315;DHT22;23886;46.614;14.276;2022-10-04T06:15:37;7.20;99.90
12315;DHT22;23886;46.614;14.276;2022-10-04T06:18:23;6.80;99.90
12315;DHT22;23886;46.614;14.276;2022-10-04T06:21:18;6.60;99.90
12315;DHT22;23886;46.614;14.276;2022-10-04T06:23:50;6.80;99.90
12315;DHT22;23886;46.614;14.276;2022-10-04T06:26:23;6.90;99.90
12315;DHT22;23886;46.614;14.276;2022-10-04T06:28:53;6.90;99.90
12315;DHT22;23886;46.614;14.276;2022-10-04T06:31:42;6.90;99.90
12315;DHT22;23886;46.614;14.276;2022-10-04T06:37:17;6.70;99.90
12315;DHT22;23886;46.614;14.276;2022-10-04T06:40:05;6.80;99.90
12315;DHT22;23886;46.614;14.276;2022-10-04T06:42:51;6.80;99.90
12315;DHT22;23886;46.614;14.276;2022-10-04T06:45:33;6.60;99.90
12315;DHT22;23886;46.614;14.276;2022-10-04T06:48:31;6.60;99.90
12315;DHT22;23886;46.614;14.276;2022-10-04T06:51:09;6.60;99.90
12315;DHT22;23886;46.614;14.276;2022-10-04T06:53:48;6.50;99.90
12315;DHT22;23886;46.614;14.276;2022-10-04T06:56:33;6.50;99.90
12315;DHT22;23886;46.614;14.276;2022-10-04T06:59:25;6.50;99.90
12315;DHT22;23886;46.614;14.276;2022-10-04T07:01:55;6.60;99.90
12315;DHT22;23886;46.614;14.276;2022-10-04T07:04:30;6.60;99.90
12315;DHT22;23886;46.614;14.276;2022-10-04T07:07:11;6.70;99.90
12315;DHT22;23886;46.614;14.276;2022-10-04T07:12:47;7.00;99.90
12315;DHT22;23886;46.614;14.276;2022-10-04T07:15:20;7.40;99.90
12315;DHT22;23886;46.614;14.276;2022-10-04T07:17:49;7.80;99.90
12315;DHT22;23886;46.614;14.276;2022-10-04T07:20:22;8.20;99.90
12315;DHT22;23886;46.614;14.276;2022-10-04T07:22:54;8.50;99.90
12315;DHT22;23886;46.614;14.276;2022-10-04T07:25:26;8.50;99.90
12315;DHT22;23886;46.614;14.276;2022-10-04T07:27:57;8.70;99.90
12315;DHT22;23886;46.614;14.276;2022-10-04T07:30:47;8.90;99.90
12315;DHT22;23886;46.614;14.276;2022-10-04T07:33:21;8.90;99.90
12315;DHT22;23886;46.614;14.276;2022-10-04T07:35:53;8.80;99.90
12315;DHT22;23886;46.614;14.276;2022-10-04T07:38:25;9.00;99.90
12315;DHT22;23886;46.614;14.276;2022-10-04T07:41:02;8.80;99.90
12315;DHT22;23886;46.614;14.276;2022-10-04T07:43:37;8.70;99.90
12315;DHT22;23886;46.614;14.276;2022-10-04T07:46:16;9.00;99.90
12315;DHT22;23886;46.614;14.276;2022-10-04T07:48:45;9.20;99.90
12315;DHT22;23886;46.614;14.276;2022-10-04T07:51:22;9.20;99.90
12315;DHT22;23886;46.614;14.276;2022-10-04T07:53:53;9.00;99.90
12315;DHT22;23886;46.614;14.276;2022-10-04T07:56:25;9.10;99.90
12315;DHT22;23886;46.614;14.276;2022-10-04T07:59:12;9.30;99.90
12315;DHT22;23886;46.614;14.276;2022-10-04T08:01:49;9.40;99.90
12315;DHT22;23886;46.614;14.276;2022-10-04T08:04:29;9.30;99.90
12315;DHT22;23886;46.614;14.276;2022-10-04T08:07:01;9.30;99.90
12315;DHT22;23886;46.614;14.276;2022-10-04T08:09:48;9.60;99.90
12315;DHT22;23886;46.614;14.276;2022-10-04T08:12:21;9.60;99.90
12315;DHT22;23886;46.614;14.276;2022-10-04T08:14:53;9.70;99.90
12315;DHT22;23886;46.614;14.276;2022-10-04T08:17:43;9.90;99.90
12315;DHT22;23886;46.614;14.276;2022-10-04T08:20:25;10.00;99.90
12315;DHT22;23886;46.614;14.276;2022-10-04T08:23:04;9.90;99.90
12315;DHT22;23886;46.614;14.276;2022-10-04T08:25:40;9.90;99.90
12315;DHT22;23886;46.614;14.276;2022-10-04T08:28:18;10.00;99.90
12315;DHT22;23886;46.614;14.276;2022-10-04T08:31:17;10.20;99.90
12315;DHT22;23886;46.614;14.276;2022-10-04T08:34:00;10.60;99.90
12315;DHT22;23886;46.614;14.276;2022-10-04T08:36:38;11.10;99.90
12315;DHT22;23886;46.614;14.276;2022-10-04T08:39:20;11.50;99.90
12315;DHT22;23886;46.614;14.276;2022-10-04T08:45:14;11.70;99.90
12315;DHT22;23886;46.614;14.276;2022-10-04T08:54:17;11.90;99.90
12315;DHT22;23886;46.614;14.276;2022-10-04T08:56:58;12.20;99.90
12315;DHT22;23886;46.614;14.276;2022-10-04T09:05:55;11.80;99.90
12315;DHT22;23886;46.614;14.276;2022-10-04T09:11:49;11.70;99.90
12315;DHT22;23886;46.614;14.276;2022-10-04T09:14:36;11.70;99.90
12315;DHT22;23886;46.614;14.276;2022-10-04T09:17:17;11.80;99.90
12315;DHT22;23886;46.614;14.276;2022-10-04T09:19:52;11.80;99.90
12315;DHT22;23886;46.614;14.276;2022-10-04T09:22:34;11.80;99.90
12315;DHT22;23886;46.614;14.276;2022-10-04T09:25:30;11.70;99.90
12315;DHT22;23886;46.614;14.276;2022-10-04T09:28:20;11.90;99.90
12315;DHT22;23886;46.614;14.276;2022-10-04T09:31:11;12.00;99.90
12315;DHT22;23886;46.614;14.276;2022-10-04T09:33:59;12.00;99.90
12315;DHT22;23886;46.614;14.276;2022-10-04T09:39:50;12.00;99.90
12315;DHT22;23886;46.614;14.276;2022-10-04T09:42:58;11.90;99.90
12315;DHT22;23886;46.614;14.276;2022-10-04T09:46:01;11.90;99.90
12315;DHT22;23886;46.614;14.276;2022-10-04T09:48:34;12.20;99.90
12315;DHT22;23886;46.614;14.276;2022-10-04T09:51:29;12.40;99.90
12315;DHT22;23886;46.614;14.276;2022-10-04T09:54:25;12.80;99.90
12315;DHT22;23886;46.614;14.276;2022-10-04T09:57:13;13.10;99.90
12315;DHT22;23886;46.614;14.276;2022-10-04T09:59:52;13.30;99.90
12315;DHT22;23886;46.614;14.276;2022-10-04T10:02:49;13.30;99.90
12315;DHT22;23886;46.614;14.276;2022-10-04T10:08:28;13.40;99.90
12315;DHT22;23886;46.614;14.276;2022-10-04T10:11:03;13.50;99.90
12315;DHT22;23886;46.614;14.276;2022-10-04T10:17:06;13.60;99.90
12315;DHT22;23886;46.614;14.276;2022-10-04T10:19:58;13.70;99.90
12315;DHT22;23886;46.614;14.276;2022-10-04T10:22:57;13.90;99.90
12315;DHT22;23886;46.614;14.276;2022-10-04T10:25:43;14.50;99.90
12315;DHT22;23886;46.614;14.276;2022-10-04T10:28:35;14.80;99.90
12315;DHT22;23886;46.614;14.276;2022-10-04T10:31:26;14.90;99.90
12315;DHT22;23886;46.614;14.276;2022-10-04T10:34:20;15.10;99.90
12315;DHT22;23886;46.614;14.276;2022-10-04T10:37:06;14.90;99.90
12315;DHT22;23886;46.614;14.276;2022-10-04T10:39:56;15.10;99.90
12315;DHT22;23886;46.614;14.276;2022-10-04T10:42:42;15.20;99.90
12315;DHT22;23886;46.614;14.276;2022-10-04T10:45:19;15.30;99.90
12315;DHT22;23886;46.614;14.276;2022-10-04T10:47:53;15.00;99.90
12315;DHT22;23886;46.614;14.276;2022-10-04T10:57:18;16.10;99.90
12315;DHT22;23886;46.614;14.276;2022-10-04T11:00:16;15.60;99.90
12315;DHT22;23886;46.614;14.276;2022-10-04T11:03:39;15.60;99.90
12315;DHT22;23886;46.614;14.276;2022-10-04T11:06:21;15.50;99.90
12315;DHT22;23886;46.614;14.276;2022-10-04T11:09:25;15.80;99.90
12315;DHT22;23886;46.614;14.276;2022-10-04T11:12:27;16.00;99.90
12315;DHT22;23886;46.614;14.276;2022-10-04T11:15:31;15.90;99.90
12315;DHT22;23886;46.614;14.276;2022-10-04T11:21:39;15.80;99.90
12315;DHT22;23886;46.614;14.276;2022-10-04T11:24:28;16.10;99.90
12315;DHT22;23886;46.614;14.276;2022-10-04T11:27:29;16.40;99.80
12315;DHT22;23886;46.614;14.276;2022-10-04T11:30:18;16.60;98.80
12315;DHT22;23886;46.614;14.276;2022-10-04T11:39:14;15.80;98.10
12315;DHT22;23886;46.614;14.276;2022-10-04T11:41:50;16.00;99.80
12315;DHT22;23886;46.614;14.276;2022-10-04T11:44:45;16.30;98.00
12315;DHT22;23886;46.614;14.276;2022-10-04T11:47:34;16.30;98.80
12315;DHT22;23886;46.614;14.276;2022-10-04T11:50:19;16.70;98.90
12315;DHT22;23886;46.614;14.276;2022-10-04T11:58:47;17.40;98.10
12315;DHT22;23886;46.614;14.276;2022-10-04T12:04:45;17.30;96.30
12315;DHT22;23886;46.614;14.276;2022-10-04T12:07:32;17.20;96.80
12315;DHT22;23886;46.614;14.276;2022-10-04T12:10:19;17.00;96.30
12315;DHT22;23886;46.614;14.276;2022-10-04T12:19:52;17.50;96.50
12315;DHT22;23886;46.614;14.276;2022-10-04T12:22:42;17.30;96.70
12315;DHT22;23886;46.614;14.276;2022-10-04T12:25:50;17.30;96.60
12315;DHT22;23886;46.614;14.276;2022-10-04T12:28:42;17.70;96.50
12315;DHT22;23886;46.614;14.276;2022-10-04T12:31:19;17.70;95.40
12315;DHT22;23886;46.614;14.276;2022-10-04T12:33:54;17.80;95.90
12315;DHT22;23886;46.614;14.276;2022-10-04T12:36:35;17.90;96.10
12315;DHT22;23886;46.614;14.276;2022-10-04T12:39:17;17.80;95.40
12315;DHT22;23886;46.614;14.276;2022-10-04T12:41:55;17.90;95.60
12315;DHT22;23886;46.614;14.276;2022-10-04T12:44:37;17.90;95.60
12315;DHT22;23886;46.614;14.276;2022-10-04T12:50:10;17.80;96.00
12315;DHT22;23886;46.614;14.276;2022-10-04T12:52:48;17.90;95.00
12315;DHT22;23886;46.614;14.276;2022-10-04T12:55:37;17.90;94.70
12315;DHT22;23886;46.614;14.276;2022-10-04T12:58:12;18.00;94.70
12315;DHT22;23886;46.614;14.276;2022-10-04T13:00:46;18.10;94.60
12315;DHT22;23886;46.614;14.276;2022-10-04T13:03:28;18.30;94.70
12315;DHT22;23886;46.614;14.276;2022-10-04T13:06:06;18.20;93.90
12315;DHT22;23886;46.614;14.276;2022-10-04T13:08:48;18.50;93.50
12315;DHT22;23886;46.614;14.276;2022-10-04T13:11:27;18.90;93.50
12315;DHT22;23886;46.614;14.276;2022-10-04T13:16:52;20.50;91.40
12315;DHT22;23886;46.614;14.276;2022-10-04T13:19:28;20.90;91.20
12315;DHT22;23886;46.614;14.276;2022-10-04T13:22:19;21.30;89.30
12315;DHT22;23886;46.614;14.276;2022-10-04T13:25:01;21.20;89.70
12315;DHT22;23886;46.614;14.276;2022-10-04T13:27:42;21.40;88.40
12315;DHT22;23886;46.614;14.276;2022-10-04T13:30:19;21.20;89.10
12315;DHT22;23886;46.614;14.276;2022-10-04T13:32:57;21.30;87.80
12315;DHT22;23886;46.614;14.276;2022-10-04T13:35:30;21.40;88.40
12315;DHT22;23886;46.614;14.276;2022-10-04T13:38:15;21.60;89.80
12315;DHT22;23886;46.614;14.276;2022-10-04T13:40:57;22.00;89.20
12315;DHT22;23886;46.614;14.276;2022-10-04T13:44:02;23.10;88.10
12315;DHT22;23886;46.614;14.276;2022-10-04T13:46:38;23.30;86.50
12315;DHT22;23886;46.614;14.276;2022-10-04T13:49:28;23.90;85.70
12315;DHT22;23886;46.614;14.276;2022-10-04T13:52:13;24.40;82.90
12315;DHT22;23886;46.614;14.276;2022-10-04T13:55:24;24.50;83.70
12315;DHT22;23886;46.614;14.276;2022-10-04T13:58:22;25.00;82.70
12315;DHT22;23886;46.614;14.276;2022-10-04T14:01:13;25.50;79.20
12315;DHT22;23886;46.614;14.276;2022-10-04T14:03:54;25.10;80.70
12315;DHT22;23886;46.614;14.276;2022-10-04T14:06:47;23.70;80.00
12315;DHT22;23886;46.614;14.276;2022-10-04T14:09:27;23.70;83.10
12315;DHT22;23886;46.614;14.276;2022-10-04T14:12:24;24.70;80.30
12315;DHT22;23886;46.614;14.276;2022-10-04T14:15:30;25.30;79.00
12315;DHT22;23886;46.614;14.276;2022-10-04T14:21:31;25.40;78.40
12315;DHT22;23886;46.614;14.276;2022-10-04T14:27:34;25.30;78.20
12315;DHT22;23886;46.614;14.276;2022-10-04T14:30:15;24.80;79.90
12315;DHT22;23886;46.614;14.276;2022-10-04T14:36:30;24.70;81.70
12315;DHT22;23886;46.614;14.276;2022-10-04T14:39:22;24.40;81.30
12315;DHT22;23886;46.614;14.276;2022-10-04T14:42:26;23.80;83.10
12315;DHT22;23886;46.614;14.276;2022-10-04T14:45:10;23.90;81.30
12315;DHT22;23886;46.614;14.276;2022-10-04T14:48:26;23.80;81.60
12315;DHT22;23886;46.614;14.276;2022-10-04T14:51:13;23.30;82.60
12315;DHT22;23886;46.614;14.276;2022-10-04T14:53:52;23.90;83.20
12315;DHT22;23886;46.614;14.276;2022-10-04T14:56:45;23.70;84.70
12315;DHT22;23886;46.614;14.276;2022-10-04T14:59:39;23.80;83.40
12315;DHT22;23886;46.614;14.276;2022-10-04T15:02:48;22.70;85.00
12315;DHT22;23886;46.614;14.276;2022-10-04T15:05:29;21.30;88.80
12315;DHT22;23886;46.614;14.276;2022-10-04T15:08:21;20.60;91.20
12315;DHT22;23886;46.614;14.276;2022-10-04T15:10:54;20.20;92.00
12315;DHT22;23886;46.614;14.276;2022-10-04T15:13:29;20.00;91.70
12315;DHT22;23886;46.614;14.276;2022-10-04T15:16:07;19.80;91.80
12315;DHT22;23886;46.614;14.276;2022-10-04T15:18:46;19.30;92.40
12315;DHT22;23886;46.614;14.276;2022-10-04T15:21:37;19.00;93.10
12315;DHT22;23886;46.614;14.276;2022-10-04T15:24:30;18.60;95.20
12315;DHT22;23886;46.614;14.276;2022-10-04T15:30:08;18.30;94.70
12315;DHT22;23886;46.614;14.276;2022-10-04T15:32:40;18.40;95.60
12315;DHT22;23886;46.614;14.276;2022-10-04T15:35:22;18.20;95.90
12315;DHT22;23886;46.614;14.276;2022-10-04T15:37:56;18.30;96.80
12315;DHT22;23886;46.614;14.276;2022-10-04T15:40:34;18.10;97.00
12315;DHT22;23886;46.614;14.276;2022-10-04T15:43:22;17.90;97.80
12315;DHT22;23886;46.614;14.276;2022-10-04T15:52:30;17.20;98.10
12315;DHT22;23886;46.614;14.276;2022-10-04T15:55:23;17.00;98.40
12315;DHT22;23886;46.614;14.276;2022-10-04T15:58:22;16.90;98.30
12315;DHT22;23886;46.614;14.276;2022-10-04T16:04:15;16.50;99.90
12315;DHT22;23886;46.614;14.276;2022-10-04T16:06:48;16.30;99.90
12315;DHT22;23886;46.614;14.276;2022-10-04T16:09:27;16.10;99.90
12315;DHT22;23886;46.614;14.276;2022-10-04T16:12:06;15.90;99.90
12315;DHT22;23886;46.614;14.276;2022-10-04T16:14:56;15.60;99.90
12315;DHT22;23886;46.614;14.276;2022-10-04T16:23:24;14.60;99.90
12315;DHT22;23886;46.614;14.276;2022-10-04T16:25:53;14.30;99.90
12315;DHT22;23886;46.614;14.276;2022-10-04T16:31:52;13.90;99.90
12315;DHT22;23886;46.614;14.276;2022-10-04T16:34:36;13.80;99.90
12315;DHT22;23886;46.614;14.276;2022-10-04T16:37:27;13.60;99.90
12315;DHT22;23886;46.614;14.276;2022-10-04T16:39:58;13.40;99.90
12315;DHT22;23886;46.614;14.276;2022-10-04T16:42:39;13.10;99.90
12315;DHT22;23886;46.614;14.276;2022-10-04T16:48:27;12.90;99.90
12315;DHT22;23886;46.614;14.276;2022-10-04T16:53:55;12.70;99.90
12315;DHT22;23886;46.614;14.276;2022-10-04T16:56:26;12.60;99.90
12315;DHT22;23886;46.614;14.276;2022-10-04T16:58:56;12.50;99.90
12315;DHT22;23886;46.614;14.276;2022-10-04T17:05:05;12.30;99.90
12315;DHT22;23886;46.614;14.276;2022-10-04T17:10:43;12.10;99.90
12315;DHT22;23886;46.614;14.276;2022-10-04T17:13:22;12.10;99.90
12315;DHT22;23886;46.614;14.276;2022-10-04T17:16:01;11.90;99.90
12315;DHT22;23886;46.614;14.276;2022-10-04T17:18:39;11.80;99.90
12315;DHT22;23886;46.614;14.276;2022-10-04T17:21:25;11.70;99.90
12315;DHT22;23886;46.614;14.276;2022-10-04T17:24:15;11.70;99.90
12315;DHT22;23886;46.614;14.276;2022-10-04T17:26:55;11.70;99.90
12315;DHT22;23886;46.614;14.276;2022-10-04T17:29:44;11.60;99.90
12315;DHT22;23886;46.614;14.276;2022-10-04T17:32:21;11.70;99.90
12315;DHT22;23886;46.614;14.276;2022-10-04T17:35:03;11.30;99.90
12315;DHT22;23886;46.614;14.276;2022-10-04T17:37:42;11.30;99.90
12315;DHT22;23886;46.614;14.276;2022-10-04T17:40:31;11.30;99.90
12315;DHT22;23886;46.614;14.276;2022-10-04T17:43:07;11.30;99.90
12315;DHT22;23886;46.614;14.276;2022-10-04T17:45:49;11.10;99.90
12315;DHT22;23886;46.614;14.276;2022-10-04T17:48:20;10.90;99.90
12315;DHT22;23886;46.614;14.276;2022-10-04T17:51:42;10.90;99.90
12315;DHT22;23886;46.614;14.276;2022-10-04T17:54:32;10.80;99.90
12315;DHT22;23886;46.614;14.276;2022-10-04T17:57:24;10.90;99.90
12315;DHT22;23886;46.614;14.276;2022-10-04T18:00:05;10.80;99.90
12315;DHT22;23886;46.614;14.276;2022-10-04T18:02:53;10.70;99.90
12315;DHT22;23886;46.614;14.276;2022-10-04T18:05:27;10.70;99.90
12315;DHT22;23886;46.614;14.276;2022-10-04T18:07:57;10.70;99.90
12315;DHT22;23886;46.614;14.276;2022-10-04T18:10:31;10.50;99.90
12315;DHT22;23886;46.614;14.276;2022-10-04T18:13:02;10.50;99.90
12315;DHT22;23886;46.614;14.276;2022-10-04T18:15:34;10.50;99.90
12315;DHT22;23886;46.614;14.276;2022-10-04T18:18:12;10.50;99.90
12315;DHT22;23886;46.614;14.276;2022-10-04T18:20:57;10.50;99.90
12315;DHT22;23886;46.614;14.276;2022-10-04T18:23:32;10.50;99.90
12315;DHT22;23886;46.614;14.276;2022-10-04T18:26:06;10.40;99.90
12315;DHT22;23886;46.614;14.276;2022-10-04T18:28:36;10.40;99.90
12315;DHT22;23886;46.614;14.276;2022-10-04T18:31:28;10.40;99.90
12315;DHT22;23886;46.614;14.276;2022-10-04T18:33:56;10.30;99.90
12315;DHT22;23886;46.614;14.276;2022-10-04T18:36:26;10.10;99.90
12315;DHT22;23886;46.614;14.276;2022-10-04T18:39:18;10.10;99.90
12315;DHT22;23886;46.614;14.276;2022-10-04T18:41:58;10.00;99.90